sensor_id;sensor_type;location;lat;lon;timestamp;pressure;altitude;pressure_sealevel;temperature;humidity
10474;BME280;5284;50.446;7.904;2023-11-22T00:01:16;99154.81;;;4.90;100.00
10474;BME280;5284;50.446;7.904;2023-11-22T00:06:20;99142.56;;;4.89;100.00
10474;BME280;5284;50.446;7.904;2023-11-22T00:11:23;99159.50;;;4.85;100.00
10474;BME280;5284;50.446;7.904;2023-11-22T00:16:28;99163.25;;;4.81;100.00
10474;BME280;5284;50.446;7.904;2023-11-22T00:21:31;99163.50;;;4.76;100.00
10474;BME280;5284;50.446;7.904;2023-11-22T00:26:35;99170.88;;;4.70;100.00
10474;BME280;5284;50.446;7.904;2023-11-22T00:31:39;99168.47;;;4.65;100.00
10474;BME280;5284;50.446;7.904;2023-11-22T00:36:45;99166.59;;;4.67;100.00
10474;BME280;5284;50.446;7.904;2023-11-22T00:41:51;99179.03;;;4.65;100.00
10474;BME280;5284;50.446;7.904;2023-11-22T00:46:55;99191.22;;;4.68;100.00
10474;BME280;5284;50.446;7.904;2023-11-22T00:51:59;99195.03;;;4.62;100.00
10474;BME280;5284;50.446;7.904;2023-11-22T00:57:05;99195.34;;;4.56;100.00
10474;BME280;5284;50.446;7.904;2023-11-22T01:02:10;99205.13;;;4.54;100.00
10474;BME280;5284;50.446;7.904;2023-11-22T01:07:13;99198.38;;;4.49;100.00
10474;BME280;5284;50.446;7.904;2023-11-22T01:12:16;99207.31;;;4.47;100.00
10474;BME280;5284;50.446;7.904;2023-11-22T01:17:21;99207.38;;;4.45;100.00
10474;BME280;5284;50.446;7.904;2023-11-22T01:22:25;99208.00;;;4.50;100.00
10474;BME280;5284;50.446;7.904;2023-11-22T01:27:29;99205.28;;;4.51;100.00
10474;BME280;5284;50.446;7.904;2023-11-22T01:32:33;99215.06;;;4.49;100.00
10474;BME280;5284;50.446;7.904;2023-11-22T01:37:36;99227.41;;;4.49;100.00
10474;BME280;5284;50.446;7.904;2023-11-22T01:42:39;99228.44;;;4.47;100.00
10474;BME280;5284;50.446;7.904;2023-11-22T01:47:43;99238.28;;;4.43;100.00
10474;BME280;5284;50.446;7.904;2023-11-22T01:52:48;99231.91;;;4.47;100.00
10474;BME280;5284;50.446;7.904;2023-11-22T01:57:51;99236.34;;;4.47;100.00
10474;BME280;5284;50.446;7.904;2023-11-22T02:02:56;99235.28;;;4.50;100.00
10474;BME280;5284;50.446;7.904;2023-11-22T02:08:00;99236.97;;;4.51;100.00
10474;BME280;5284;50.446;7.904;2023-11-22T02:13:04;99245.91;;;4.49;100.00
10474;BME280;5284;50.446;7.904;2023-11-22T02:18:10;99251.16;;;4.49;100.00
10474;BME280;5284;50.446;7.904;2023-11-22T02:23:17;99247.75;;;4.47;100.00
10474;BME280;5284;50.446;7.904;2023-11-22T02:28:20;99236.34;;;4.47;100.00
10474;BME280;5284;50.446;7.904;2023-11-22T02:33:23;99233.78;;;4.45;100.00
10474;BME280;5284;50.446;7.904;2023-11-22T02:38:28;99248.69;;;4.46;100.00
10474;BME280;5284;50.446;7.904;2023-11-22T02:43:31;99255.94;;;4.43;100.00
10474;BME280;5284;50.446;7.904;2023-11-22T02:48:34;99265.91;;;4.36;100.00
10474;BME280;5284;50.446;7.904;2023-11-22T02:53:39;99264.38;;;4.32;100.00
10474;BME280;5284;50.446;7.904;2023-11-22T02:58:46;99280.84;;;4.19;100.00
10474;BME280;5284;50.446;7.904;2023-11-22T03:03:49;99298.06;;;4.09;100.00
10474;BME280;5284;50.446;7.904;2023-11-22T03:08:53;99297.53;;;4.01;100.00
10474;BME280;5284;50.446;7.904;2023-11-22T03:13:56;99292.91;;;3.87;100.00
10474;BME280;5284;50.446;7.904;2023-11-22T03:19:00;99294.22;;;3.79;100.00
10474;BME280;5284;50.446;7.904;2023-11-22T03:24:05;99306.47;;;3.80;100.00
10474;BME280;5284;50.446;7.904;2023-11-22T03:29:08;99303.31;;;3.72;100.00
10474;BME280;5284;50.446;7.904;2023-11-22T03:34:12;99309.44;;;3.72;100.00
10474;BME280;5284;50.446;7.904;2023-11-22T03:39:16;99320.34;;;3.65;100.00
10474;BME280;5284;50.446;7.904;2023-11-22T03:44:19;99320.69;;;3.57;100.00
10474;BME280;5284;50.446;7.904;2023-11-22T03:49:23;99323.81;;;3.47;100.00
10474;BME280;5284;50.446;7.904;2023-11-22T03:54:27;99333.75;;;3.40;100.00
10474;BME280;5284;50.446;7.904;2023-11-22T03:59:31;99330.34;;;3.38;100.00
10474;BME280;5284;50.446;7.904;2023-11-22T04:04:36;99350.03;;;3.30;100.00
10474;BME280;5284;50.446;7.904;2023-11-22T04:09:42;99338.09;;;3.21;100.00
10474;BME280;5284;50.446;7.904;2023-11-22T04:14:46;99350.56;;;3.18;100.00
10474;BME280;5284;50.446;7.904;2023-11-22T04:19:49;99358.06;;;3.07;100.00
10474;BME280;5284;50.446;7.904;2023-11-22T04:24:53;99371.47;;;3.01;100.00
10474;BME280;5284;50.446;7.904;2023-11-22T04:29:57;99380.69;;;2.91;100.00
10474;BME280;5284;50.446;7.904;2023-11-22T04:35:00;99393.31;;;2.83;100.00
10474;BME280;5284;50.446;7.904;2023-11-22T04:40:05;99396.13;;;2.79;100.00
10474;BME280;5284;50.446;7.904;2023-11-22T04:45:09;99400.78;;;2.72;100.00
10474;BME280;5284;50.446;7.904;2023-11-22T04:50:12;99409.72;;;2.68;100.00
10474;BME280;5284;50.446;7.904;2023-11-22T04:55:18;99421.41;;;2.61;100.00
10474;BME280;5284;50.446;7.904;2023-11-22T05:00:21;99432.06;;;2.58;100.00
10474;BME280;5284;50.446;7.904;2023-11-22T05:05:24;99438.50;;;2.51;100.00
10474;BME280;5284;50.446;7.904;2023-11-22T05:10:29;99428.22;;;2.45;100.00
10474;BME280;5284;50.446;7.904;2023-11-22T05:15:32;99424.09;;;2.38;100.00
10474;BME280;5284;50.446;7.904;2023-11-22T05:20:35;99419.84;;;2.34;100.00
10474;BME280;5284;50.446;7.904;2023-11-22T05:25:40;99422.72;;;2.28;100.00
10474;BME280;5284;50.446;7.904;2023-11-22T05:30:42;99428.09;;;2.25;100.00
10474;BME280;5284;50.446;7.904;2023-11-22T05:35:46;99425.75;;;2.18;100.00
10474;BME280;5284;50.446;7.904;2023-11-22T05:40:50;99433.03;;;2.11;100.00
10474;BME280;5284;50.446;7.904;2023-11-22T05:45:53;99438.53;;;2.05;100.00
10474;BME280;5284;50.446;7.904;2023-11-22T05:50:56;99443.88;;;2.02;100.00
10474;BME280;5284;50.446;7.904;2023-11-22T05:56:01;99457.19;;;1.98;100.00
10474;BME280;5284;50.446;7.904;2023-11-22T06:01:08;99461.78;;;1.93;100.00
10474;BME280;5284;50.446;7.904;2023-11-22T06:06:13;99454.94;;;1.87;100.00
10474;BME280;5284;50.446;7.904;2023-11-22T06:11:17;99477.22;;;1.77;100.00
10474;BME280;5284;50.446;7.904;2023-11-22T06:16:21;99492.38;;;1.69;100.00
10474;BME280;5284;50.446;7.904;2023-11-22T06:21:24;99491.81;;;1.61;100.00
10474;BME280;5284;50.446;7.904;2023-11-22T06:26:30;99508.00;;;1.49;100.00
10474;BME280;5284;50.446;7.904;2023-11-22T06:31:34;99500.09;;;1.49;100.00
10474;BME280;5284;50.446;7.904;2023-11-22T06:36:37;99495.88;;;1.46;100.00
10474;BME280;5284;50.446;7.904;2023-11-22T06:41:41;99484.69;;;1.39;100.00
10474;BME280;5284;50.446;7.904;2023-11-22T06:46:44;99490.03;;;1.38;100.00
10474;BME280;5284;50.446;7.904;2023-11-22T06:51:48;99505.00;;;1.34;100.00
10474;BME280;5284;50.446;7.904;2023-11-22T06:56:52;99507.78;;;1.30;100.00
10474;BME280;5284;50.446;7.904;2023-11-22T07:01:56;99513.03;;;1.30;100.00
10474;BME280;5284;50.446;7.904;2023-11-22T07:06:59;99527.38;;;1.20;100.00
10474;BME280;5284;50.446;7.904;2023-11-22T07:12:05;99537.13;;;0.89;100.00
10474;BME280;5284;50.446;7.904;2023-11-22T07:17:07;99537.91;;;0.92;100.00
10474;BME280;5284;50.446;7.904;2023-11-22T07:22:11;99524.47;;;1.01;100.00
10474;BME280;5284;50.446;7.904;2023-11-22T07:27:20;99521.84;;;1.01;100.00
10474;BME280;5284;50.446;7.904;2023-11-22T07:32:24;99531.97;;;1.13;100.00
10474;BME280;5284;50.446;7.904;2023-11-22T07:37:27;99531.63;;;1.24;100.00
10474;BME280;5284;50.446;7.904;2023-11-22T07:42:31;99527.75;;;1.35;100.00
10474;BME280;5284;50.446;7.904;2023-11-22T07:47:34;99535.84;;;1.55;100.00
10474;BME280;5284;50.446;7.904;2023-11-22T07:52:37;99543.88;;;1.76;100.00
10474;BME280;5284;50.446;7.904;2023-11-22T07:57:44;99550.38;;;1.91;100.00
10474;BME280;5284;50.446;7.904;2023-11-22T08:02:46;99573.47;;;2.07;100.00
10474;BME280;5284;50.446;7.904;2023-11-22T08:07:51;99591.69;;;2.12;100.00
10474;BME280;5284;50.446;7.904;2023-11-22T08:12:55;99602.44;;;2.30;100.00
10474;BME280;5284;50.446;7.904;2023-11-22T08:17:59;99587.94;;;2.43;100.00
10474;BME280;5284;50.446;7.904;2023-11-22T08:23:03;99596.47;;;2.50;100.00
10474;BME280;5284;50.446;7.904;2023-11-22T08:28:09;99590.00;;;2.58;100.00
10474;BME280;5284;50.446;7.904;2023-11-22T08:33:12;99592.91;;;2.75;100.00
10474;BME280;5284;50.446;7.904;2023-11-22T08:38:15;99598.09;;;2.99;100.00
10474;BME280;5284;50.446;7.904;2023-11-22T08:43:19;99584.16;;;3.19;100.00
10474;BME280;5284;50.446;7.904;2023-11-22T08:48:26;99577.88;;;3.21;100.00
10474;BME280;5284;50.446;7.904;2023-11-22T08:53:30;99557.84;;;3.39;100.00
10474;BME280;5284;50.446;7.904;2023-11-22T08:58:35;99576.13;;;3.65;100.00
10474;BME280;5284;50.446;7.904;2023-11-22T09:03:38;99561.13;;;3.87;100.00
10474;BME280;5284;50.446;7.904;2023-11-22T09:08:41;99566.72;;;3.79;97.69
10474;BME280;5284;50.446;7.904;2023-11-22T09:13:46;99598.16;;;4.05;97.35
10474;BME280;5284;50.446;7.904;2023-11-22T09:18:49;99601.06;;;3.99;98.42
10474;BME280;5284;50.446;7.904;2023-11-22T09:23:52;99593.47;;;4.12;98.36
10474;BME280;5284;50.446;7.904;2023-11-22T09:28:56;99609.00;;;3.78;98.19
10474;BME280;5284;50.446;7.904;2023-11-22T09:34:00;99638.72;;;3.81;97.86
10474;BME280;5284;50.446;7.904;2023-11-22T09:39:03;99645.53;;;4.08;96.02
10474;BME280;5284;50.446;7.904;2023-11-22T09:44:11;99676.84;;;4.57;94.13
10474;BME280;5284;50.446;7.904;2023-11-22T09:49:20;99668.47;;;4.87;94.84
10474;BME280;5284;50.446;7.904;2023-11-22T09:54:28;99637.53;;;4.89;93.80
10474;BME280;5284;50.446;7.904;2023-11-22T09:59:36;99639.34;;;5.26;93.06
10474;BME280;5284;50.446;7.904;2023-11-22T10:04:38;99647.53;;;5.01;89.86
10474;BME280;5284;50.446;7.904;2023-11-22T10:09:42;99630.91;;;4.99;87.16
10474;BME280;5284;50.446;7.904;2023-11-22T10:14:47;99642.28;;;5.38;87.67
10474;BME280;5284;50.446;7.904;2023-11-22T10:19:52;99643.00;;;5.79;81.04
10474;BME280;5284;50.446;7.904;2023-11-22T10:24:58;99662.06;;;6.03;83.02
10474;BME280;5284;50.446;7.904;2023-11-22T10:30:05;99643.97;;;6.47;82.99
10474;BME280;5284;50.446;7.904;2023-11-22T10:35:08;99634.41;;;5.74;83.10
10474;BME280;5284;50.446;7.904;2023-11-22T10:40:13;99644.50;;;5.47;84.66
10474;BME280;5284;50.446;7.904;2023-11-22T10:45:17;99653.88;;;5.36;86.93
10474;BME280;5284;50.446;7.904;2023-11-22T10:50:20;99662.66;;;5.55;86.83
10474;BME280;5284;50.446;7.904;2023-11-22T10:55:26;99635.69;;;5.65;83.69
10474;BME280;5284;50.446;7.904;2023-11-22T11:00:33;99644.38;;;5.50;83.40
10474;BME280;5284;50.446;7.904;2023-11-22T11:05:38;99631.75;;;6.09;82.94
10474;BME280;5284;50.446;7.904;2023-11-22T11:10:45;99642.53;;;6.23;81.36
10474;BME280;5284;50.446;7.904;2023-11-22T11:15:53;99641.03;;;6.85;77.24
10474;BME280;5284;50.446;7.904;2023-11-22T11:20:58;99650.13;;;6.97;72.76
10474;BME280;5284;50.446;7.904;2023-11-22T11:26:09;99654.75;;;6.59;71.45
10474;BME280;5284;50.446;7.904;2023-11-22T11:31:21;99661.13;;;6.21;74.37
10474;BME280;5284;50.446;7.904;2023-11-22T11:36:25;99659.75;;;6.48;77.37
10474;BME280;5284;50.446;7.904;2023-11-22T11:41:31;99660.44;;;6.69;70.95
10474;BME280;5284;50.446;7.904;2023-11-22T11:46:36;99639.16;;;6.87;71.77
10474;BME280;5284;50.446;7.904;2023-11-22T11:51:40;99630.59;;;6.82;69.17
10474;BME280;5284;50.446;7.904;2023-11-22T11:56:44;99640.13;;;7.02;70.80
10474;BME280;5284;50.446;7.904;2023-11-22T12:01:53;99638.41;;;7.01;66.74
10474;BME280;5284;50.446;7.904;2023-11-22T12:06:57;99628.31;;;6.75;69.29
10474;BME280;5284;50.446;7.904;2023-11-22T12:12:00;99612.13;;;6.81;68.37
10474;BME280;5284;50.446;7.904;2023-11-22T12:17:05;99622.13;;;6.59;69.27
10474;BME280;5284;50.446;7.904;2023-11-22T12:22:09;99611.69;;;6.56;68.76
10474;BME280;5284;50.446;7.904;2023-11-22T12:27:14;99610.38;;;6.64;66.43
10474;BME280;5284;50.446;7.904;2023-11-22T12:32:23;99608.81;;;6.43;71.71
10474;BME280;5284;50.446;7.904;2023-11-22T12:37:27;99621.66;;;6.17;71.22
10474;BME280;5284;50.446;7.904;2023-11-22T12:42:30;99612.34;;;5.73;71.29
10474;BME280;5284;50.446;7.904;2023-11-22T12:47:35;99597.81;;;5.65;74.81
10474;BME280;5284;50.446;7.904;2023-11-22T12:52:38;99603.63;;;5.36;78.06
10474;BME280;5284;50.446;7.904;2023-11-22T12:57:42;99559.91;;;5.10;80.57
10474;BME280;5284;50.446;7.904;2023-11-22T13:02:47;99557.38;;;5.07;78.66
10474;BME280;5284;50.446;7.904;2023-11-22T13:08:04;99529.53;;;5.19;77.88
10474;BME280;5284;50.446;7.904;2023-11-22T13:13:07;99519.44;;;5.08;76.34
10474;BME280;5284;50.446;7.904;2023-11-22T13:18:12;99522.34;;;5.04;79.61
10474;BME280;5284;50.446;7.904;2023-11-22T13:23:16;99526.31;;;4.75;80.57
10474;BME280;5284;50.446;7.904;2023-11-22T13:28:19;99531.09;;;4.67;84.39
10474;BME280;5284;50.446;7.904;2023-11-22T13:33:24;99533.41;;;4.75;83.07
10474;BME280;5284;50.446;7.904;2023-11-22T13:38:27;99543.53;;;4.84;81.47
10474;BME280;5284;50.446;7.904;2023-11-22T13:43:30;99546.13;;;4.85;81.34
10474;BME280;5284;50.446;7.904;2023-11-22T13:48:36;99559.22;;;4.68;82.68
10474;BME280;5284;50.446;7.904;2023-11-22T13:53:39;99555.78;;;4.66;82.15
10474;BME280;5284;50.446;7.904;2023-11-22T13:58:46;99548.16;;;4.60;80.89
10474;BME280;5284;50.446;7.904;2023-11-22T14:03:50;99534.38;;;4.72;83.46
10474;BME280;5284;50.446;7.904;2023-11-22T14:08:55;99532.09;;;4.47;83.78
10474;BME280;5284;50.446;7.904;2023-11-22T14:13:58;99534.44;;;4.52;85.06
10474;BME280;5284;50.446;7.904;2023-11-22T14:19:05;99537.78;;;4.56;82.21
10474;BME280;5284;50.446;7.904;2023-11-22T14:24:09;99534.00;;;4.43;85.09
10474;BME280;5284;50.446;7.904;2023-11-22T14:29:12;99517.72;;;4.52;85.46
10474;BME280;5284;50.446;7.904;2023-11-22T14:34:16;99531.78;;;4.34;90.99
10474;BME280;5284;50.446;7.904;2023-11-22T14:39:19;99543.25;;;4.33;92.11
10474;BME280;5284;50.446;7.904;2023-11-22T14:44:24;99559.03;;;4.15;93.33
10474;BME280;5284;50.446;7.904;2023-11-22T14:49:29;99569.38;;;4.19;95.08
10474;BME280;5284;50.446;7.904;2023-11-22T14:54:44;99587.28;;;4.13;92.57
10474;BME280;5284;50.446;7.904;2023-11-22T14:59:47;99588.34;;;4.09;93.98
10474;BME280;5284;50.446;7.904;2023-11-22T15:04:52;99612.19;;;3.86;93.42
10474;BME280;5284;50.446;7.904;2023-11-22T15:09:55;99607.50;;;3.92;98.25
10474;BME280;5284;50.446;7.904;2023-11-22T15:14:57;99602.72;;;3.80;97.57
10474;BME280;5284;50.446;7.904;2023-11-22T15:20:04;99614.50;;;3.72;99.50
10474;BME280;5284;50.446;7.904;2023-11-22T15:25:10;99625.72;;;3.55;100.00
10474;BME280;5284;50.446;7.904;2023-11-22T15:30:17;99625.25;;;3.46;100.00
10474;BME280;5284;50.446;7.904;2023-11-22T15:35:22;99623.66;;;3.42;100.00
10474;BME280;5284;50.446;7.904;2023-11-22T15:40:25;99638.88;;;3.34;100.00
10474;BME280;5284;50.446;7.904;2023-11-22T15:45:28;99627.91;;;3.23;100.00
10474;BME280;5284;50.446;7.904;2023-11-22T15:50:32;99617.06;;;3.09;100.00
10474;BME280;5284;50.446;7.904;2023-11-22T15:55:35;99624.75;;;3.13;100.00
10474;BME280;5284;50.446;7.904;2023-11-22T16:00:38;99627.50;;;3.10;100.00
10474;BME280;5284;50.446;7.904;2023-11-22T16:05:43;99628.56;;;3.06;100.00
10474;BME280;5284;50.446;7.904;2023-11-22T16:10:47;99621.84;;;2.98;100.00
10474;BME280;5284;50.446;7.904;2023-11-22T16:15:50;99615.91;;;2.93;100.00
10474;BME280;5284;50.446;7.904;2023-11-22T16:20:57;99614.84;;;2.97;100.00
10474;BME280;5284;50.446;7.904;2023-11-22T16:26:01;99624.56;;;2.97;100.00
10474;BME280;5284;50.446;7.904;2023-11-22T16:31:06;99617.63;;;2.94;100.00
10474;BME280;5284;50.446;7.904;2023-11-22T16:36:13;99602.84;;;2.90;100.00
10474;BME280;5284;50.446;7.904;2023-11-22T16:41:18;99614.28;;;2.89;100.00
10474;BME280;5284;50.446;7.904;2023-11-22T16:46:22;99612.41;;;2.93;100.00
10474;BME280;5284;50.446;7.904;2023-11-22T16:51:27;99591.50;;;2.88;100.00
10474;BME280;5284;50.446;7.904;2023-11-22T16:56:30;99600.09;;;2.93;100.00
10474;BME280;5284;50.446;7.904;2023-11-22T17:01:33;99631.84;;;2.89;100.00
10474;BME280;5284;50.446;7.904;2023-11-22T17:06:38;99625.88;;;2.85;100.00
10474;BME280;5284;50.446;7.904;2023-11-22T17:11:41;99600.56;;;2.81;100.00
10474;BME280;5284;50.446;7.904;2023-11-22T17:16:45;99608.09;;;2.67;100.00
10474;BME280;5284;50.446;7.904;2023-11-22T17:21:50;99594.09;;;2.67;100.00
10474;BME280;5284;50.446;7.904;2023-11-22T17:26:53;99595.16;;;2.61;100.00
10474;BME280;5284;50.446;7.904;2023-11-22T17:31:58;99576.19;;;2.52;100.00
10474;BME280;5284;50.446;7.904;2023-11-22T17:37:03;99594.50;;;2.55;100.00
10474;BME280;5284;50.446;7.904;2023-11-22T17:42:06;99604.34;;;2.50;100.00
10474;BME280;5284;50.446;7.904;2023-11-22T17:47:10;99594.75;;;2.49;100.00
10474;BME280;5284;50.446;7.904;2023-11-22T17:52:15;99579.13;;;2.44;100.00
10474;BME280;5284;50.446;7.904;2023-11-22T17:57:18;99589.88;;;2.38;100.00
10474;BME280;5284;50.446;7.904;2023-11-22T18:02:23;99589.88;;;2.38;100.00
10474;BME280;5284;50.446;7.904;2023-11-22T18:07:28;99589.94;;;2.37;100.00
10474;BME280;5284;50.446;7.904;2023-11-22T18:12:48;99595.94;;;2.40;100.00
10474;BME280;5284;50.446;7.904;2023-11-22T18:17:58;99597.59;;;2.43;100.00
10474;BME280;5284;50.446;7.904;2023-11-22T18:23:02;99596.53;;;2.48;100.00
10474;BME280;5284;50.446;7.904;2023-11-22T18:28:05;99585.81;;;2.53;100.00
10474;BME280;5284;50.446;7.904;2023-11-22T18:33:13;99569.09;;;2.54;100.00
10474;BME280;5284;50.446;7.904;2023-11-22T18:38:33;99567.19;;;2.59;100.00
10474;BME280;5284;50.446;7.904;2023-11-22T18:43:42;99556.59;;;2.60;100.00
10474;BME280;5284;50.446;7.904;2023-11-22T18:48:44;99542.69;;;2.57;100.00
10474;BME280;5284;50.446;7.904;2023-11-22T18:54:04;99542.91;;;2.51;100.00
10474;BME280;5284;50.446;7.904;2023-11-22T18:59:08;99557.09;;;2.47;100.00
10474;BME280;5284;50.446;7.904;2023-11-22T19:04:12;99544.00;;;2.45;100.00
10474;BME280;5284;50.446;7.904;2023-11-22T19:09:16;99550.31;;;2.41;100.00
10474;BME280;5284;50.446;7.904;2023-11-22T19:14:21;99546.88;;;2.39;100.00
10474;BME280;5284;50.446;7.904;2023-11-22T19:19:30;99539.13;;;2.35;100.00
10474;BME280;5284;50.446;7.904;2023-11-22T19:24:40;99541.88;;;2.32;100.00
10474;BME280;5284;50.446;7.904;2023-11-22T19:29:43;99551.63;;;2.28;100.00
10474;BME280;5284;50.446;7.904;2023-11-22T19:34:47;99556.06;;;2.28;100.00
10474;BME280;5284;50.446;7.904;2023-11-22T19:39:51;99557.00;;;2.25;100.00
10474;BME280;5284;50.446;7.904;2023-11-22T19:44:54;99560.66;;;2.21;100.00
10474;BME280;5284;50.446;7.904;2023-11-22T19:49:59;99571.84;;;2.28;100.00
10474;BME280;5284;50.446;7.904;2023-11-22T19:55:04;99574.28;;;2.32;100.00
10474;BME280;5284;50.446;7.904;2023-11-22T20:00:08;99573.50;;;2.30;100.00
10474;BME280;5284;50.446;7.904;2023-11-22T20:05:15;99562.91;;;2.32;100.00
10474;BME280;5284;50.446;7.904;2023-11-22T20:10:19;99537.34;;;2.35;100.00
10474;BME280;5284;50.446;7.904;2023-11-22T20:15:26;99536.34;;;2.39;100.00
10474;BME280;5284;50.446;7.904;2023-11-22T20:20:29;99532.78;;;2.40;100.00
10474;BME280;5284;50.446;7.904;2023-11-22T20:25:34;99524.91;;;2.40;100.00
10474;BME280;5284;50.446;7.904;2023-11-22T20:30:38;99527.53;;;2.40;100.00
10474;BME280;5284;50.446;7.904;2023-11-22T20:35:40;99537.81;;;2.46;100.00
10474;BME280;5284;50.446;7.904;2023-11-22T20:40:46;99521.00;;;2.50;100.00
10474;BME280;5284;50.446;7.904;2023-11-22T20:45:50;99517.44;;;2.51;100.00
10474;BME280;5284;50.446;7.904;2023-11-22T20:50:54;99525.47;;;2.48;100.00
10474;BME280;5284;50.446;7.904;2023-11-22T20:55:58;99546.44;;;2.50;100.00
10474;BME280;5284;50.446;7.904;2023-11-22T21:01:01;99535.13;;;2.48;100.00
10474;BME280;5284;50.446;7.904;2023-11-22T21:06:04;99518.28;;;2.52;100.00
10474;BME280;5284;50.446;7.904;2023-11-22T21:11:09;99521.97;;;2.48;100.00
10474;BME280;5284;50.446;7.904;2023-11-22T21:16:13;99511.38;;;2.49;100.00
10474;BME280;5284;50.446;7.904;2023-11-22T21:21:23;99528.13;;;2.47;100.00
10474;BME280;5284;50.446;7.904;2023-11-22T21:26:27;99523.19;;;2.39;100.00
10474;BME280;5284;50.446;7.904;2023-11-22T21:31:30;99504.75;;;2.39;100.00
10474;BME280;5284;50.446;7.904;2023-11-22T21:36:33;99516.94;;;2.42;100.00
10474;BME280;5284;50.446;7.904;2023-11-22T21:41:45;99524.97;;;2.37;100.00
10474;BME280;5284;50.446;7.904;2023-11-22T21:46:48;99522.66;;;2.30;100.00
10474;BME280;5284;50.446;7.904;2023-11-22T21:51:52;99536.66;;;2.30;100.00
10474;BME280;5284;50.446;7.904;2023-11-22T21:56:56;99508.81;;;2.25;100.00
10474;BME280;5284;50.446;7.904;2023-11-22T22:02:00;99512.63;;;2.16;100.00
10474;BME280;5284;50.446;7.904;2023-11-22T22:07:03;99510.91;;;2.15;100.00
10474;BME280;5284;50.446;7.904;2023-11-22T22:12:08;99512.84;;;2.10;100.00
10474;BME280;5284;50.446;7.904;2023-11-22T22:17:12;99511.25;;;2.06;100.00
10474;BME280;5284;50.446;7.904;2023-11-22T22:22:15;99511.72;;;1.93;100.00
10474;BME280;5284;50.446;7.904;2023-11-22T22:27:19;99506.59;;;1.90;100.00
10474;BME280;5284;50.446;7.904;2023-11-22T22:32:22;99496.53;;;1.76;100.00
10474;BME280;5284;50.446;7.904;2023-11-22T22:37:25;99503.56;;;1.76;100.00
10474;BME280;5284;50.446;7.904;2023-11-22T22:42:30;99494.13;;;1.70;100.00
10474;BME280;5284;50.446;7.904;2023-11-22T22:47:35;99493.50;;;1.62;100.00
10474;BME280;5284;50.446;7.904;2023-11-22T22:52:38;99509.34;;;1.61;100.00
10474;BME280;5284;50.446;7.904;2023-11-22T22:57:42;99514.91;;;1.52;100.00
10474;BME280;5284;50.446;7.904;2023-11-22T23:02:46;99511.56;;;1.47;100.00
10474;BME280;5284;50.446;7.904;2023-11-22T23:07:49;99493.03;;;1.51;100.00
10474;BME280;5284;50.446;7.904;2023-11-22T23:12:53;99480.00;;;1.48;100.00
10474;BME280;5284;50.446;7.904;2023-11-22T23:17:57;99486.38;;;1.42;100.00
10474;BME280;5284;50.446;7.904;2023-11-22T23:23:01;99472.22;;;1.46;100.00
10474;BME280;5284;50.446;7.904;2023-11-22T23:28:06;99459.31;;;1.40;100.00
10474;BME280;5284;50.446;7.904;2023-11-22T23:33:09;99451.56;;;1.35;100.00
10474;BME280;5284;50.446;7.904;2023-11-22T23:38:13;99452.72;;;1.27;100.00
10474;BME280;5284;50.446;7.904;2023-11-22T23:43:17;99443.38;;;1.18;100.00
10474;BME280;5284;50.446;7.904;2023-11-22T23:48:20;99437.41;;;1.13;100.00
10474;BME280;5284;50.446;7.904;2023-11-22T23:53:23;99430.34;;;1.15;100.00
10474;BME280;5284;50.446;7.904;2023-11-22T23:58:27;99412.69;;;1.20;100.00
